Time;durP1;ratioP1;P1;durP2;ratioP2;P2;SDS_P1;SDS_P2;PMS_P1;PMS_P2;Temp;Humidity;BMP_temperature;BMP_pressure;BME280_temperature;BME280_humidity;BME280_pressure;Samples;Min_cycle;Max_cycle;Signal;HPM_P1;HPM_P2
2023/04/03 00:03:01;;;;;;;;;;;;;;;19.41;39.67;96146.59;10479642;28;2056;-61
2023/04/03 00:08:02;;;;;;;;;;;;;;;19.39;39.56;96144.19;10478134;28;2307;-62
2023/04/03 00:13:03;;;;;;;;;;;;;;;19.38;39.31;96153.13;10460041;28;2323;-62
2023/04/03 00:18:03;;;;;;;;;;;;;;;19.37;39.47;96156.03;10483756;28;2108;-62
2023/04/03 00:23:04;;;;;;;;;;;;;;;19.36;39.19;96154.44;10480835;28;2372;-62
2023/04/03 00:28:05;;;;;;;;;;;;;;;19.34;39.04;96154.69;10486140;28;2338;-62
2023/04/03 00:33:05;;;;;;;;;;;;;;;19.31;39.04;96152.53;10486344;28;2364;-62
2023/04/03 00:38:06;;;;;;;;;;;;;;;19.31;39.09;96162.25;10485579;28;2327;-61
2023/04/03 00:43:11;;;;;;;;;;;;;;;19.30;38.90;96150.97;10485167;28;1964;-62
2023/04/03 00:48:13;;;;;;;;;;;;;;;19.29;38.92;96159.09;10488459;28;1901;-62
2023/04/03 00:53:16;;;;;;;;;;;;;;;19.27;38.85;96150.66;10469001;28;2232;-62
2023/04/03 00:58:17;;;;;;;;;;;;;;;19.26;38.61;96149.09;10485045;28;2280;-62
2023/04/03 01:03:17;;;;;;;;;;;;;;;19.25;38.75;96158.00;10487529;28;2316;-62
2023/04/03 01:08:18;;;;;;;;;;;;;;;19.23;38.74;96150.38;10482994;28;2051;-62
2023/04/03 01:13:26;;;;;;;;;;;;;;;19.21;38.50;96149.84;10486352;28;2062;-62
2023/04/03 01:18:26;;;;;;;;;;;;;;;19.21;38.43;96160.38;10479133;28;2291;-62
2023/04/03 01:23:41;;;;;;;;;;;;;;;19.20;38.34;96158.00;10480427;28;2478;-62
2023/04/03 01:28:42;;;;;;;;;;;;;;;19.18;38.43;96163.53;10469364;28;1987;-62
2023/04/03 01:33:42;;;;;;;;;;;;;;;19.16;38.34;96157.72;10487179;28;2362;-62
2023/04/03 01:38:42;;;;;;;;;;;;;;;19.17;38.10;96171.63;10487676;28;2122;-60
2023/04/03 01:43:43;;;;;;;;;;;;;;;19.16;38.04;96168.25;10482158;28;2307;-62
2023/04/03 01:48:43;;;;;;;;;;;;;;;19.14;37.86;96165.06;10484355;28;2328;-62
2023/04/03 01:53:44;;;;;;;;;;;;;;;19.12;38.10;96169.00;10490964;28;2079;-62
2023/04/03 01:58:44;;;;;;;;;;;;;;;19.13;37.72;96162.69;10483572;28;2263;-61
2023/04/03 02:03:45;;;;;;;;;;;;;;;19.11;37.74;96162.13;10482956;28;2419;-62
2023/04/03 02:08:45;;;;;;;;;;;;;;;19.08;37.87;96152.94;10483682;28;2060;-62
2023/04/03 02:13:46;;;;;;;;;;;;;;;19.08;37.72;96162.66;10480809;28;1920;-61
2023/04/03 02:18:47;;;;;;;;;;;;;;;19.06;37.60;96157.63;10486000;28;1914;-62
2023/04/03 02:23:47;;;;;;;;;;;;;;;19.06;37.57;96149.75;10483595;28;1949;-61
2023/04/03 02:28:47;;;;;;;;;;;;;;;19.05;37.69;96148.19;10477077;28;2155;-62
2023/04/03 02:33:49;;;;;;;;;;;;;;;19.05;37.48;96153.44;10471264;28;2032;-63
2023/04/03 02:38:50;;;;;;;;;;;;;;;19.03;37.41;96152.91;10480336;28;2091;-62
2023/04/03 02:43:50;;;;;;;;;;;;;;;19.02;37.52;96159.19;10481570;28;2322;-62
2023/04/03 02:48:52;;;;;;;;;;;;;;;19.01;37.46;96151.56;10477635;28;2374;-62
2023/04/03 02:53:53;;;;;;;;;;;;;;;18.99;37.47;96151.84;10465394;28;2078;-62
2023/04/03 02:58:53;;;;;;;;;;;;;;;19.00;37.19;96150.00;10477909;28;2331;-62
2023/04/03 03:03:54;;;;;;;;;;;;;;;18.98;37.30;96155.50;10479340;28;2313;-62
2023/04/03 03:08:54;;;;;;;;;;;;;;;18.97;37.07;96159.19;10473664;28;2358;-62
2023/04/03 03:13:54;;;;;;;;;;;;;;;18.96;37.17;96162.06;10476850;28;2392;-62
2023/04/03 03:18:55;;;;;;;;;;;;;;;18.94;37.27;96158.91;10479871;28;2293;-62
2023/04/03 03:23:55;;;;;;;;;;;;;;;18.94;37.32;96162.28;10480658;28;1968;-62
2023/04/03 03:28:56;;;;;;;;;;;;;;;18.93;37.22;96157.31;10474162;28;2385;-62
2023/04/03 03:33:56;;;;;;;;;;;;;;;18.92;37.09;96158.38;10481156;28;2004;-62
2023/04/03 03:38:56;;;;;;;;;;;;;;;18.92;37.01;96156.50;10482423;28;2493;-62
2023/04/03 03:43:57;;;;;;;;;;;;;;;18.90;37.07;96152.56;10479709;28;2037;-61
2023/04/03 03:48:59;;;;;;;;;;;;;;;18.89;37.23;96162.28;10474948;28;2233;-62
2023/04/03 03:53:59;;;;;;;;;;;;;;;18.88;37.02;96163.31;10486478;28;2379;-62
2023/04/03 03:59:00;;;;;;;;;;;;;;;18.87;37.03;96156.50;10487820;28;1999;-62
2023/04/03 04:04:00;;;;;;;;;;;;;;;18.85;37.07;96153.31;10486761;28;2327;-62
2023/04/03 04:09:01;;;;;;;;;;;;;;;18.86;37.35;96154.09;10486556;28;1975;-61
2023/04/03 04:14:01;;;;;;;;;;;;;;;18.87;37.42;96156.50;10485943;28;1984;-61
2023/04/03 04:19:12;;;;;;;;;;;;;;;18.94;37.21;96157.03;10483933;28;2064;-62
2023/04/03 04:24:12;;;;;;;;;;;;;;;19.02;37.05;96163.69;10488298;28;2336;-61
2023/04/03 04:29:12;;;;;;;;;;;;;;;19.10;37.04;96160.56;10483649;28;2316;-61
2023/04/03 04:34:14;;;;;;;;;;;;;;;19.18;37.00;96163.53;10489923;28;2260;-61
2023/04/03 04:39:15;;;;;;;;;;;;;;;19.27;36.87;96164.59;10481897;28;2327;-62
2023/04/03 04:44:15;;;;;;;;;;;;;;;19.34;36.77;96165.22;10485384;28;2104;-62
2023/04/03 04:49:16;;;;;;;;;;;;;;;19.42;36.54;96167.34;10466365;28;2366;-62
2023/04/03 04:54:17;;;;;;;;;;;;;;;19.47;36.37;96172.63;10485396;28;2032;-61
2023/04/03 04:59:17;;;;;;;;;;;;;;;19.55;36.18;96168.72;10486225;28;1980;-62
2023/04/03 05:04:18;;;;;;;;;;;;;;;19.59;35.96;96176.88;10479348;28;2293;-62
2023/04/03 05:09:19;;;;;;;;;;;;;;;19.62;35.77;96174.53;10483434;28;2311;-61
2023/04/03 05:14:20;;;;;;;;;;;;;;;19.65;35.89;96178.47;10491320;28;2043;-62
2023/04/03 05:19:20;;;;;;;;;;;;;;;19.68;35.96;96183.25;10482319;28;2137;-62
2023/04/03 05:24:21;;;;;;;;;;;;;;;19.70;35.79;96183.78;10482378;28;2298;-60
2023/04/03 05:29:21;;;;;;;;;;;;;;;19.72;35.85;96184.31;10482655;28;2071;-59
2023/04/03 05:34:22;;;;;;;;;;;;;;;19.73;35.69;96186.69;10481839;28;2329;-60
2023/04/03 05:39:24;;;;;;;;;;;;;;;19.77;35.64;96189.56;10485477;28;2067;-61
2023/04/03 05:44:24;;;;;;;;;;;;;;;19.79;35.95;96182.22;10481723;28;2380;-63
2023/04/03 05:49:24;;;;;;;;;;;;;;;19.82;35.65;96192.25;10483920;28;1951;-63
2023/04/03 05:54:26;;;;;;;;;;;;;;;19.84;35.60;96192.78;10481187;28;2008;-63
2023/04/03 05:59:26;;;;;;;;;;;;;;;19.86;35.51;96188.84;10465003;28;2252;-63
2023/04/03 06:04:27;;;;;;;;;;;;;;;19.91;35.68;96190.66;10486725;28;2045;-63
2023/04/03 06:09:28;;;;;;;;;;;;;;;19.92;35.69;96202.78;10478181;28;2052;-63
2023/04/03 06:14:29;;;;;;;;;;;;;;;19.94;35.38;96198.84;10460753;28;2406;-63
2023/04/03 06:19:30;;;;;;;;;;;;;;;19.95;35.45;96204.88;10461577;28;2387;-63
2023/04/03 06:24:31;;;;;;;;;;;;;;;19.94;35.63;96201.50;10481014;28;2272;-63
2023/04/03 06:29:31;;;;;;;;;;;;;;;19.96;35.75;96217.00;10475758;28;2068;-63
2023/04/03 06:34:33;;;;;;;;;;;;;;;20.00;35.58;96213.63;10482883;28;2101;-63
2023/04/03 06:39:34;;;;;;;;;;;;;;;20.04;35.59;96213.88;10478234;28;1972;-63
2023/04/03 06:44:35;;;;;;;;;;;;;;;20.06;35.41;96217.03;10476804;28;1937;-63
2023/04/03 06:49:36;;;;;;;;;;;;;;;20.06;35.61;96212.56;10478423;28;2228;-63
2023/04/03 06:54:37;;;;;;;;;;;;;;;20.09;35.44;96211.28;10480979;28;2324;-63
2023/04/03 06:59:38;;;;;;;;;;;;;;;20.09;35.46;96216.53;10478492;28;2044;-63
2023/04/03 07:04:48;;;;;;;;;;;;;;;20.12;35.60;96222.06;10478514;28;2320;-63
2023/04/03 07:09:49;;;;;;;;;;;;;;;20.12;35.34;96226.53;10476217;28;2146;-63
2023/04/03 07:14:50;;;;;;;;;;;;;;;20.15;35.15;96236.56;10480294;28;2590;-62
2023/04/03 07:19:51;;;;;;;;;;;;;;;20.13;35.18;96238.66;10478262;28;2267;-61
2023/04/03 07:24:52;;;;;;;;;;;;;;;20.13;35.22;96241.28;10461177;28;2277;-63
2023/04/03 07:29:52;;;;;;;;;;;;;;;20.10;35.33;96244.41;10475285;28;2156;-63
2023/04/03 07:34:53;;;;;;;;;;;;;;;20.10;35.59;96254.94;10478353;28;2738;-63
2023/04/03 07:39:55;;;;;;;;;;;;;;;20.10;35.26;96250.50;10474044;28;2100;-62
2023/04/03 07:44:55;;;;;;;;;;;;;;;20.08;35.37;96262.31;10478226;28;2541;-63
2023/04/03 07:49:57;;;;;;;;;;;;;;;20.06;35.33;96261.78;10475292;28;2563;-63
2023/04/03 07:54:57;;;;;;;;;;;;;;;20.02;35.44;96269.41;10481839;28;2291;-64
2023/04/03 07:59:57;;;;;;;;;;;;;;;19.99;35.61;96274.41;10479898;28;2622;-66
2023/04/03 08:04:58;;;;;;;;;;;;;;;19.96;35.73;96270.44;10474878;28;2778;-63
2023/04/03 08:09:58;;;;;;;;;;;;;;;19.93;35.69;96270.13;10480055;28;2624;-63
2023/04/03 08:14:59;;;;;;;;;;;;;;;19.90;35.54;96274.09;10479224;28;2324;-63
2023/04/03 08:20:00;;;;;;;;;;;;;;;19.86;35.54;96275.66;10474313;28;2132;-63
2023/04/03 08:25:01;;;;;;;;;;;;;;;19.82;35.71;96274.59;10452406;28;2168;-63
2023/04/03 08:30:01;;;;;;;;;;;;;;;19.79;35.81;96275.09;10474107;28;2295;-63
2023/04/03 08:35:02;;;;;;;;;;;;;;;19.76;35.83;96274.81;10477921;28;2053;-63
2023/04/03 08:40:04;;;;;;;;;;;;;;;19.74;35.65;96276.91;10464495;28;2346;-63
2023/04/03 08:45:10;;;;;;;;;;;;;;;19.70;35.87;96281.09;10476326;28;2935;-63
2023/04/03 08:50:15;;;;;;;;;;;;;;;19.66;35.97;96282.66;10486806;28;2116;-63
2023/04/03 08:55:27;;;;;;;;;;;;;;;19.63;35.86;96276.06;10464621;28;2299;-63
2023/04/03 09:00:28;;;;;;;;;;;;;;;19.60;35.98;96289.69;10469252;28;2273;-63
2023/04/03 09:05:39;;;;;;;;;;;;;;;19.57;35.88;96282.34;10466093;28;2224;-62
2023/04/03 09:10:40;;;;;;;;;;;;;;;19.54;35.83;96290.72;10462031;28;2291;-62
2023/04/03 09:15:42;;;;;;;;;;;;;;;19.52;36.15;96294.63;10482211;28;2177;-62
2023/04/03 09:20:46;;;;;;;;;;;;;;;19.49;36.23;96288.84;10465735;28;2298;-63
2023/04/03 09:25:54;;;;;;;;;;;;;;;19.47;35.92;96285.66;10481072;28;2677;-63
2023/04/03 09:30:55;;;;;;;;;;;;;;;19.44;36.30;96283.56;10495513;28;2140;-63
2023/04/03 09:35:55;;;;;;;;;;;;;;;19.41;36.26;96278.78;10480627;28;2295;-63
2023/04/03 09:41:15;;;;;;;;;;;;;;;19.42;36.22;96276.97;10482897;28;2573;-63
2023/04/03 09:46:17;;;;;;;;;;;;;;;19.40;36.26;96277.22;10462378;28;2720;-63
2023/04/03 09:51:17;;;;;;;;;;;;;;;19.36;36.36;96275.34;10481352;28;2299;-63
2023/04/03 09:56:20;;;;;;;;;;;;;;;19.34;36.08;96275.63;10478580;28;2642;-63
2023/04/03 10:01:23;;;;;;;;;;;;;;;19.31;36.16;96275.28;10480301;28;2569;-62
2023/04/03 10:06:24;;;;;;;;;;;;;;;19.30;36.30;96284.22;10481159;28;2147;-63
2023/04/03 10:11:24;;;;;;;;;;;;;;;19.28;36.37;96276.59;10478275;28;2102;-62
2023/04/03 10:16:37;;;;;;;;;;;;;;;19.26;36.34;96283.94;10481625;28;2219;-63
2023/04/03 10:21:42;;;;;;;;;;;;;;;19.25;36.40;96276.28;10481989;28;2338;-62
2023/04/03 10:26:56;;;;;;;;;;;;;;;19.22;36.49;96272.34;10480180;28;2497;-63
2023/04/03 10:32:09;;;;;;;;;;;;;;;19.20;36.45;96274.44;10480881;28;2295;-63
2023/04/03 10:37:29;;;;;;;;;;;;;;;19.20;36.44;96276.25;10456788;28;2313;-63
2023/04/03 10:42:35;;;;;;;;;;;;;;;19.18;36.37;96279.16;10478332;28;2144;-63
2023/04/03 10:47:54;;;;;;;;;;;;;;;19.17;36.31;96288.06;10479426;28;2359;-63
2023/04/03 10:52:57;;;;;;;;;;;;;;;19.14;36.30;96285.94;10477929;28;2552;-63
2023/04/03 10:57:58;;;;;;;;;;;;;;;19.12;36.25;96288.03;10480859;28;2302;-63
2023/04/03 11:03:00;;;;;;;;;;;;;;;19.11;36.35;96283.00;10483397;28;2330;-63
2023/04/03 11:08:07;;;;;;;;;;;;;;;19.09;36.25;96282.47;10491542;28;2093;-63
2023/04/03 11:13:12;;;;;;;;;;;;;;;19.07;36.17;96280.09;10462106;28;2394;-63
2023/04/03 11:18:13;;;;;;;;;;;;;;;19.05;36.42;96276.94;10473565;28;2251;-63
2023/04/03 11:23:22;;;;;;;;;;;;;;;19.02;36.39;96272.16;10473860;28;2171;-63
2023/04/03 11:28:22;;;;;;;;;;;;;;;19.01;36.26;96267.97;10461997;28;2540;-62
2023/04/03 11:33:32;;;;;;;;;;;;;;;19.00;36.33;96269.00;10481235;28;2155;-63
2023/04/03 11:38:36;;;;;;;;;;;;;;;18.98;36.24;96262.44;10444987;28;2166;-63
2023/04/03 11:43:40;;;;;;;;;;;;;;;18.98;36.23;96262.44;10461346;28;2379;-63
2023/04/03 11:48:42;;;;;;;;;;;;;;;18.97;36.29;96260.84;10457560;28;2657;-63
2023/04/03 11:53:42;;;;;;;;;;;;;;;18.95;36.25;96257.66;10455534;28;2277;-63
2023/04/03 11:58:43;;;;;;;;;;;;;;;18.94;36.29;96256.88;10473884;28;2648;-63
2023/04/03 12:03:45;;;;;;;;;;;;;;;18.93;36.37;96244.78;10455313;28;2465;-63
2023/04/03 12:08:46;;;;;;;;;;;;;;;18.92;36.45;96242.41;10478719;28;2619;-63
2023/04/03 12:13:49;;;;;;;;;;;;;;;18.91;36.42;96239.00;10480266;28;2330;-63
2023/04/03 12:19:04;;;;;;;;;;;;;;;18.89;36.28;96232.41;10486185;28;2614;-62
2023/04/03 12:24:07;;;;;;;;;;;;;;;18.89;36.33;96224.53;10483798;28;2572;-63
2023/04/03 12:29:28;;;;;;;;;;;;;;;18.89;36.45;96222.69;10485995;28;2589;-63
2023/04/03 12:34:38;;;;;;;;;;;;;;;18.86;36.29;96222.38;10486675;28;2314;-63
2023/04/03 12:39:41;;;;;;;;;;;;;;;18.86;36.28;96223.19;10487864;28;2139;-63
2023/04/03 12:44:48;;;;;;;;;;;;;;;18.84;36.30;96224.47;10487499;28;2611;-63
2023/04/03 12:49:54;;;;;;;;;;;;;;;18.83;36.48;96207.13;10483625;28;2563;-63
2023/04/03 12:54:56;;;;;;;;;;;;;;;18.81;36.28;96207.41;10465891;28;2563;-62
2023/04/03 12:59:57;;;;;;;;;;;;;;;18.80;36.25;96205.81;10467610;28;2517;-63
2023/04/03 13:05:06;;;;;;;;;;;;;;;18.78;36.28;96210.50;10481872;28;2290;-63
2023/04/03 13:10:07;;;;;;;;;;;;;;;18.79;36.35;96200.81;10487144;28;2331;-62
2023/04/03 13:15:17;;;;;;;;;;;;;;;18.79;36.19;96190.31;10489855;28;2171;-63
2023/04/03 13:20:26;;;;;;;;;;;;;;;18.77;36.26;96193.19;10477131;28;2576;-63
2023/04/03 13:25:28;;;;;;;;;;;;;;;18.77;36.31;96198.44;10483300;28;2223;-63
2023/04/03 13:30:30;;;;;;;;;;;;;;;18.77;36.56;96203.69;10449230;28;2616;-63
2023/04/03 13:35:37;;;;;;;;;;;;;;;18.74;36.32;96198.94;10480441;28;2569;-63
2023/04/03 13:40:46;;;;;;;;;;;;;;;18.76;36.33;96206.56;10473107;28;2526;-62
2023/04/03 13:46:04;;;;;;;;;;;;;;;18.78;36.22;96200.00;10487244;28;2334;-62
2023/04/03 13:51:12;;;;;;;;;;;;;;;18.84;36.19;96204.25;10485914;28;2581;-62
2023/04/03 13:56:17;;;;;;;;;;;;;;;18.92;36.22;96195.91;10484192;28;2597;-63
2023/04/03 14:01:19;;;;;;;;;;;;;;;19.00;36.21;96202.56;10466747;28;2155;-63
2023/04/03 14:06:21;;;;;;;;;;;;;;;19.05;36.20;96190.22;10461498;28;2267;-62
2023/04/03 14:11:23;;;;;;;;;;;;;;;19.15;36.03;96177.16;10481567;28;2585;-62
2023/04/03 14:16:25;;;;;;;;;;;;;;;19.21;36.04;96176.13;10463984;28;2617;-62
2023/04/03 14:21:26;;;;;;;;;;;;;;;19.30;35.79;96177.25;10477485;28;2318;-62
2023/04/03 14:26:27;;;;;;;;;;;;;;;19.36;35.60;96176.25;10482281;28;2249;-62
2023/04/03 14:31:28;;;;;;;;;;;;;;;19.41;35.76;96170.25;10463851;28;2153;-62
2023/04/03 14:36:28;;;;;;;;;;;;;;;19.48;35.63;96158.44;10483692;28;2262;-62
2023/04/03 14:41:29;;;;;;;;;;;;;;;19.54;35.57;96161.09;10478620;28;2334;-62
2023/04/03 14:46:31;;;;;;;;;;;;;;;19.57;35.47;96156.09;10480567;28;2685;-62
2023/04/03 14:51:41;;;;;;;;;;;;;;;19.62;35.53;96168.50;10449069;28;2624;-62
2023/04/03 14:56:41;;;;;;;;;;;;;;;19.66;35.45;96169.56;10482183;28;2550;-62
2023/04/03 15:01:45;;;;;;;;;;;;;;;19.69;35.29;96175.09;10463371;28;2672;-62
2023/04/03 15:06:46;;;;;;;;;;;;;;;19.71;35.31;96172.19;10481077;28;2330;-62
2023/04/03 15:11:48;;;;;;;;;;;;;;;19.75;35.28;96178.50;10461391;28;2488;-62
2023/04/03 15:16:50;;;;;;;;;;;;;;;19.79;35.32;96169.06;10477173;28;2582;-62
2023/04/03 15:21:57;;;;;;;;;;;;;;;19.81;35.25;96175.66;10462038;28;2627;-62
2023/04/03 15:26:58;;;;;;;;;;;;;;;19.84;34.95;96179.63;10477986;28;2664;-62
2023/04/03 15:31:58;;;;;;;;;;;;;;;19.85;35.15;96170.66;10482796;28;2616;-62
2023/04/03 15:36:59;;;;;;;;;;;;;;;19.86;35.00;96170.41;10473136;28;2586;-62
2023/04/03 15:42:05;;;;;;;;;;;;;;;19.88;35.01;96172.78;10476822;28;2131;-62
2023/04/03 15:47:06;;;;;;;;;;;;;;;19.90;34.88;96173.31;10481007;28;2587;-62
2023/04/03 15:52:06;;;;;;;;;;;;;;;19.89;34.89;96164.63;10487851;28;2211;-62
2023/04/03 15:57:07;;;;;;;;;;;;;;;19.91;34.77;96174.88;10486461;28;2166;-62
2023/04/03 16:02:08;;;;;;;;;;;;;;;19.91;34.69;96172.25;10486350;28;2314;-62
2023/04/03 16:07:09;;;;;;;;;;;;;;;19.94;34.84;96177.81;10468444;28;2254;-62
2023/04/03 16:12:09;;;;;;;;;;;;;;;19.94;34.87;96177.00;10466872;28;2717;-61
2023/04/03 16:17:10;;;;;;;;;;;;;;;19.96;34.82;96183.59;10503416;28;2681;-62
2023/04/03 16:22:10;;;;;;;;;;;;;;;19.98;34.63;96194.66;10483688;28;2636;-61
2023/04/03 16:27:11;;;;;;;;;;;;;;;19.99;34.60;96196.22;10485758;28;2556;-62
2023/04/03 16:32:12;;;;;;;;;;;;;;;19.99;34.68;96204.13;10485908;28;2632;-63
2023/04/03 16:37:12;;;;;;;;;;;;;;;20.03;34.20;96196.53;10482690;28;2375;-63
2023/04/03 16:42:12;;;;;;;;;;;;;;;20.00;34.33;96202.28;10483442;28;2508;-61
2023/04/03 16:47:15;;;;;;;;;;;;;;;20.02;34.29;96211.50;10484410;28;2290;-60
2023/04/03 16:52:15;;;;;;;;;;;;;;;20.00;34.41;96202.28;10483756;28;2550;-63
2023/04/03 16:57:16;;;;;;;;;;;;;;;20.05;33.95;96208.34;10481372;28;2310;-62
2023/04/03 17:02:17;;;;;;;;;;;;;;;20.04;34.32;96217.31;10480238;28;2357;-62
2023/04/03 17:07:18;;;;;;;;;;;;;;;20.09;34.47;96213.91;10478354;28;2122;-61
2023/04/03 17:12:20;;;;;;;;;;;;;;;20.04;34.43;96213.88;10484970;28;2132;-62
2023/04/03 17:17:21;;;;;;;;;;;;;;;20.09;34.36;96221.81;10480574;28;2682;-62
2023/04/03 17:22:22;;;;;;;;;;;;;;;20.10;34.24;96218.91;10480905;28;2333;-62
2023/04/03 17:27:23;;;;;;;;;;;;;;;20.12;34.28;96229.16;10462549;28;2714;-61
2023/04/03 17:32:25;;;;;;;;;;;;;;;20.08;33.98;96230.72;10476135;28;2635;-60
2023/04/03 17:37:25;;;;;;;;;;;;;;;20.12;34.04;96232.59;10476068;28;2136;-61
2023/04/03 17:42:26;;;;;;;;;;;;;;;20.13;34.29;96238.66;10478803;28;2582;-62
2023/04/03 17:47:27;;;;;;;;;;;;;;;20.15;34.28;96231.28;10464632;28;2347;-58
2023/04/03 17:52:28;;;;;;;;;;;;;;;20.11;34.32;96241.53;10481030;28;2287;-59
2023/04/03 17:57:30;;;;;;;;;;;;;;;20.09;34.31;96238.34;10479751;28;2319;-59
2023/04/03 18:02:32;;;;;;;;;;;;;;;20.07;34.26;96243.09;10477083;28;2632;-60
2023/04/03 18:07:34;;;;;;;;;;;;;;;20.10;34.36;96250.50;10464531;28;2406;-60
2023/04/03 18:12:36;;;;;;;;;;;;;;;20.09;34.11;96251.53;10463481;28;2837;-59
2023/04/03 18:17:37;;;;;;;;;;;;;;;20.15;33.99;96252.34;10480061;28;2568;-59
2023/04/03 18:22:37;;;;;;;;;;;;;;;20.15;34.21;96253.13;10482133;28;2143;-60
2023/04/03 18:27:37;;;;;;;;;;;;;;;20.14;34.54;96261.28;10479912;28;2616;-60
2023/04/03 18:32:38;;;;;;;;;;;;;;;20.16;34.65;96267.06;10463489;28;2449;-59
2023/04/03 18:37:38;;;;;;;;;;;;;;;20.17;34.65;96263.41;10477706;28;2671;-59
2023/04/03 18:42:38;;;;;;;;;;;;;;;20.16;34.91;96274.97;10480166;28;2345;-60
2023/04/03 18:47:39;;;;;;;;;;;;;;;20.16;35.03;96272.34;10476915;28;2183;-60
2023/04/03 18:52:39;;;;;;;;;;;;;;;20.19;34.71;96280.56;10480082;28;2618;-61
2023/04/03 18:57:39;;;;;;;;;;;;;;;20.21;34.84;96278.47;10473000;28;2566;-62
2023/04/03 19:02:40;;;;;;;;;;;;;;;20.22;35.08;96281.88;10464534;28;2365;-62
2023/04/03 19:07:43;;;;;;;;;;;;;;;20.26;35.15;96285.56;10456460;28;2161;-62
2023/04/03 19:12:44;;;;;;;;;;;;;;;20.26;35.36;96296.09;10474120;28;2580;-61
2023/04/03 19:17:45;;;;;;;;;;;;;;;20.30;35.30;96291.13;10476613;28;2151;-61
2023/04/03 19:22:45;;;;;;;;;;;;;;;20.31;35.41;96290.84;10475267;28;2275;-62
2023/04/03 19:27:46;;;;;;;;;;;;;;;20.33;35.40;96290.59;10472088;28;2595;-62
2023/04/03 19:32:46;;;;;;;;;;;;;;;20.36;35.51;96300.63;10475728;28;2615;-62
2023/04/03 19:37:49;;;;;;;;;;;;;;;20.37;35.46;96296.94;10479828;28;2313;-62
2023/04/03 19:42:49;;;;;;;;;;;;;;;20.34;35.46;96303.50;10472603;28;2163;-62
2023/04/03 19:47:51;;;;;;;;;;;;;;;20.34;35.46;96306.13;10474500;28;2548;-62
2023/04/03 19:52:51;;;;;;;;;;;;;;;20.32;35.49;96295.06;10458535;28;2267;-62
2023/04/03 19:57:52;;;;;;;;;;;;;;;20.29;35.49;96295.59;10459529;28;2585;-62
2023/04/03 20:02:53;;;;;;;;;;;;;;;20.26;35.59;96301.38;10457561;28;2159;-62
2023/04/03 20:07:54;;;;;;;;;;;;;;;20.23;35.24;96305.31;10478557;28;2599;-61
2023/04/03 20:12:55;;;;;;;;;;;;;;;20.18;35.51;96304.47;10472903;28;2679;-61
2023/04/03 20:17:56;;;;;;;;;;;;;;;20.13;35.46;96307.09;10477098;28;2210;-61
2023/04/03 20:22:58;;;;;;;;;;;;;;;20.08;35.47;96305.22;10477254;28;2326;-61
2023/04/03 20:27:59;;;;;;;;;;;;;;;20.03;35.50;96297.28;10472348;28;2702;-62
2023/04/03 20:32:59;;;;;;;;;;;;;;;19.96;35.56;96294.13;10472964;28;2322;-61
2023/04/03 20:38:00;;;;;;;;;;;;;;;19.91;35.57;96293.28;10485831;28;2588;-61
2023/04/03 20:43:02;;;;;;;;;;;;;;;19.89;35.57;96298.00;10482150;28;2581;-61
2023/04/03 20:48:04;;;;;;;;;;;;;;;19.85;35.23;96294.31;10493332;28;2553;-61
2023/04/03 20:53:04;;;;;;;;;;;;;;;19.81;35.26;96303.75;10482305;28;2565;-61
2023/04/03 20:58:05;;;;;;;;;;;;;;;19.75;35.37;96300.31;10481011;28;2627;-61
2023/04/03 21:03:08;;;;;;;;;;;;;;;19.70;35.45;96295.00;10488921;28;2577;-61
2023/04/03 21:08:28;;;;;;;;;;;;;;;19.67;35.31;96285.03;10481807;28;2339;-62
2023/04/03 21:13:47;;;;;;;;;;;;;;;19.63;35.22;96298.91;10488439;28;2303;-61
2023/04/03 21:18:54;;;;;;;;;;;;;;;19.58;35.29;96288.38;10483523;28;2177;-62
2023/04/03 21:23:54;;;;;;;;;;;;;;;19.56;35.11;96290.47;10488290;28;2325;-62
2023/04/03 21:28:55;;;;;;;;;;;;;;;19.50;35.30;96292.25;10472648;28;2383;-61
2023/04/03 21:33:56;;;;;;;;;;;;;;;19.46;35.17;96296.44;10491237;28;2369;-64
2023/04/03 21:38:57;;;;;;;;;;;;;;;19.42;35.27;96296.16;10500802;28;2716;-61
2023/04/03 21:43:58;;;;;;;;;;;;;;;19.39;35.35;96296.66;10482946;28;2168;-61
2023/04/03 21:48:58;;;;;;;;;;;;;;;19.38;35.24;96300.34;10479989;28;2267;-62
2023/04/03 21:53:59;;;;;;;;;;;;;;;19.36;35.45;96285.88;10480738;28;2341;-61
2023/04/03 21:59:00;;;;;;;;;;;;;;;19.34;35.17;96294.00;10480343;28;2599;-61
2023/04/03 22:04:02;;;;;;;;;;;;;;;19.30;35.27;96292.09;10486046;28;2139;-61
2023/04/03 22:09:02;;;;;;;;;;;;;;;19.28;35.20;96284.47;10481134;28;2250;-62
2023/04/03 22:14:03;;;;;;;;;;;;;;;19.27;35.09;96288.13;10479534;28;2532;-61
2023/04/03 22:19:03;;;;;;;;;;;;;;;19.23;35.16;96287.06;10481697;28;2387;-61
2023/04/03 22:24:04;;;;;;;;;;;;;;;19.21;35.12;96281.25;10479311;28;2613;-61
2023/04/03 22:29:04;;;;;;;;;;;;;;;19.19;35.14;96285.97;10479527;28;2616;-61
2023/04/03 22:34:06;;;;;;;;;;;;;;;19.17;35.07;96282.00;10486657;28;2143;-60
2023/04/03 22:39:09;;;;;;;;;;;;;;;19.13;35.01;96276.47;10477495;28;2343;-61
2023/04/03 22:44:10;;;;;;;;;;;;;;;19.12;34.95;96277.53;10494620;28;2198;-61
2023/04/03 22:49:11;;;;;;;;;;;;;;;19.09;34.97;96272.75;10464300;28;2643;-62
2023/04/03 22:54:11;;;;;;;;;;;;;;;19.05;34.89;96271.69;10482428;28;2285;-60
2023/04/03 22:59:12;;;;;;;;;;;;;;;19.05;34.84;96278.75;10478475;28;2745;-62
2023/04/03 23:04:13;;;;;;;;;;;;;;;19.03;34.89;96281.66;10482811;28;2658;-62
2023/04/03 23:09:13;;;;;;;;;;;;;;;19.03;34.83;96283.47;10479748;28;2437;-62
2023/04/03 23:14:14;;;;;;;;;;;;;;;18.99;34.87;96275.31;10481365;28;2318;-61
2023/04/03 23:19:15;;;;;;;;;;;;;;;18.97;34.80;96272.16;10476966;28;2167;-61
2023/04/03 23:24:15;;;;;;;;;;;;;;;18.94;34.81;96270.00;10474411;28;2597;-62
2023/04/03 23:29:16;;;;;;;;;;;;;;;18.94;34.72;96274.50;10479123;28;2683;-62
2023/04/03 23:34:19;;;;;;;;;;;;;;;18.91;34.69;96275.78;10483385;28;2586;-61
2023/04/03 23:39:21;;;;;;;;;;;;;;;18.91;34.81;96278.41;10481665;28;2616;-62
2023/04/03 23:44:22;;;;;;;;;;;;;;;18.88;34.69;96268.38;10482818;28;2614;-61
2023/04/03 23:49:23;;;;;;;;;;;;;;;18.87;34.67;96266.00;10480574;28;2179;-61
2023/04/03 23:54:24;;;;;;;;;;;;;;;18.85;34.71;96273.34;10480939;28;2221;-61
2023/04/03 23:59:25;;;;;;;;;;;;;;;18.83;34.70;96263.09;10481117;28;3060;-61
